• Join FlightAware (Why Join?)
  • Login
  • US Flag 
01:13PM EDT


 

Airport Tracker/Info


-or-


 

Live Flight TrackerFlight Track Log ✈ SWA655 ✈ 31-Aug-2013 ✈ KMKE - KLAS

Flight Track Log - Related Links

Times and Time Zones

All times are in EDT time to prevent confusion due to time zone crossing. See the SWA655 flight status page for this flight to view local times or setup timezone preferences in your user account.

Time Position Orientation Groundspeed Altitude Reporting Facility
EDT Latitude Longitude Course Direction KTS MPH feet Rate Location/Type
04:06PM 42.9667 -87.8500 60° Northeast 197 227 2,500  Level KMKE
04:07PM 42.9956 -87.8725 330° Northwest 223 257 4,000 2,340 Climbing Chicago Center
04:08PM 42.9922 -87.9892 268° West 263 303 6,800 2,700 Climbing Chicago Center
04:09PM 42.9881 -88.0953 267° West 277 319 9,700 2,040 Climbing Chicago Center
04:10PM 42.9847 -88.2103 268° West 304 350 11,000 1,740 Climbing Chicago Center
04:11PM 42.9792 -88.3472 267° West 352 405 13,300 2,340 Climbing Chicago Center
04:12PM 42.9736 -88.4875 267° West 363 418 15,900 2,460 Climbing Chicago Center
04:13PM 42.9669 -88.6317 266° West 376 433 18,400 2,340 Climbing Chicago Center
04:14PM 42.9611 -88.7806 267° West 388 447 20,700 2,160 Climbing Chicago Center
04:15PM 42.9542 -88.9344 267° West 400 460 22,900 2,160 Climbing Chicago Center
04:16PM 42.9461 -89.1183 267° West 412 474 25,200 1,980 Climbing Chicago Center
04:17PM 42.9381 -89.2775 266° West 418 481 27,000 1,740 Climbing Chicago Center
04:18PM 42.9317 -89.4386 267° West 422 486 28,800 1,800 Climbing Chicago Center
04:19PM 42.9281 -89.5992 268° West 421 484 30,800 1,560 Climbing Chicago Center
04:20PM 42.9253 -89.7600 269° West 422 486 32,100 1,260 Climbing Chicago Center
04:21PM 42.9222 -89.9283 269° West 428 493 33,500 1,380 Climbing Chicago Center
04:23PM 42.9203 -90.0931 269° West 435 501 35,000 1,200 Climbing Chicago Center
04:24PM 42.9169 -90.2497 268° West 423 487 36,000 480 Climbing Chicago Center
04:25PM 42.9150 -90.4047 269° West 415 478 36,000  Level Chicago Center
04:26PM 42.9078 -90.5906 267° West 413 475 36,000  Level Chicago Center
04:27PM 42.8842 -90.7444 258° West 417 480 36,000  Level Chicago Center
04:28PM 42.8633 -90.8994 260° West 420 483 36,000  Level Chicago Center
04:29PM 42.8425 -91.0531 260° West 418 481 36,000  Level Chicago Center
04:30PM 42.8169 -91.2403 260° West 421 484 36,000  Level Chicago Center
04:31PM 42.7908 -91.4247 259° West 419 482 36,000  Level Chicago Center
04:32PM 42.7667 -91.5767 258° West 422 486 36,000  Level Chicago Center
04:33PM 42.7453 -91.7306 259° West 423 487 36,000  Level Chicago Center
04:34PM 42.7211 -91.9111 260° West 430 495 36,000  Level Chicago Center
04:35PM 42.6986 -92.0664 259° West 425 489 36,000 660 Level Chicago Center
04:36PM 42.6761 -92.2211 259° West 422 486 37,400 960 Climbing Chicago Center
04:37PM 42.6539 -92.3717 259° West 413 475 38,000 240 Climbing Chicago Center
04:38PM 42.6319 -92.5214 259° West 408 470 38,000  Level Chicago Center
04:39PM 42.6042 -92.7008 258° West 408 470 38,000  Level Chicago Center
04:40PM 42.5817 -92.8519 259° West 411 473 38,000  Level Chicago Center
04:41PM 42.5572 -93.0019 258° West 412 474 38,000  Level Chicago Center
04:42PM 42.5358 -93.1553 259° West 414 476 38,000  Level Minneapolis Center
04:43PM 42.5111 -93.3094 258° West 419 482 38,000  Level Minneapolis Center
04:44PM 42.4878 -93.4625 258° West 421 484 38,000  Level Minneapolis Center
04:45PM 42.4592 -93.6458 258° West 419 482 38,000  Level Minneapolis Center
04:46PM 42.4342 -93.7994 258° West 423 487 38,000  Level Minneapolis Center
04:47PM 42.4083 -93.9514 257° West 420 483 38,000  Level Minneapolis Center
04:48PM 42.3833 -94.1028 257° West 417 480 38,000  Level Minneapolis Center
04:49PM 42.3556 -94.2772 258° West 415 478 38,000  Level Minneapolis Center
04:51PM 42.3306 -94.4283 257° West 413 475 38,000  Level Minneapolis Center
04:52PM 42.3000 -94.6072 257° West 410 472 38,000  Level Minneapolis Center
04:53PM 42.2739 -94.7561 257° West 407 468 38,000  Level Minneapolis Center
04:54PM 42.2492 -94.9069 258° West 410 472 38,000  Level Minneapolis Center
04:55PM 42.2225 -95.0525 256° West 403 464 38,000  Level Minneapolis Center
04:56PM 42.1917 -95.2333 257° West 410 472 38,000  Level Minneapolis Center
04:57PM 42.1597 -95.4136 257° West 413 475 38,000  Level Minneapolis Center
04:58PM 42.1336 -95.5628 257° West 411 473 38,000  Level Minneapolis Center
04:59PM 42.1064 -95.7111 256° West 409 471 38,000  Level Minneapolis Center
05:00PM 42.0797 -95.8614 257° West 414 476 38,000  Level Minneapolis Center
05:01PM 42.0522 -96.0089 256° West 409 471 38,000  Level Minneapolis Center
05:02PM 42.0308 -96.1278 256° West 409 471 38,000  Level Minneapolis Center
05:03PM 41.9919 -96.3350 256° West 411 473 38,000  Level Minneapolis Center
05:04PM 41.9642 -96.4836 256° West 411 473 38,000  Level Minneapolis Center
05:05PM 41.9372 -96.6283 256° West 407 468 38,000  Level Minneapolis Center
05:06PM 41.9094 -96.7753 256° West 407 468 38,000  Level Minneapolis Center
05:07PM 41.8808 -96.9214 255° West 407 468 38,000  Level Minneapolis Center
05:08PM 41.8589 -97.0372 256° West 405 466 38,000  Level Minneapolis Center
05:09PM 41.8258 -97.2139 256° West 408 470 38,000  Level Minneapolis Center
05:10PM 41.7903 -97.3892 255° West 408 470 38,000  Level Minneapolis Center
05:12PM 41.7619 -97.5353 255° West 407 468 38,000  Level Minneapolis Center
05:13PM 41.7258 -97.7100 255° West 406 467 38,000  Level Minneapolis Center
05:14PM 41.6969 -97.8542 255° West 404 465 38,000  Level Minneapolis Center
05:15PM 41.6694 -97.9972 256° West 400 460 38,000  Level Minneapolis Center
05:16PM 41.6386 -98.1444 254° West 400 460 38,000  Level Minneapolis Center
05:17PM 41.6100 -98.2872 255° West 400 460 38,000  Level Minneapolis Center
05:18PM 41.5797 -98.4292 254° West 399 459 38,000  Level Minneapolis Center
05:19PM 41.5456 -98.5981 255° West 401 461 38,000  Level Minneapolis Center
05:20PM 41.5147 -98.7403 254° West 401 461 38,000  Level Minneapolis Center
05:21PM 41.4847 -98.8839 254° West 402 463 38,000  Level Minneapolis Center
05:22PM 41.4539 -99.0264 254° West 401 461 38,000  Level Minneapolis Center
05:23PM 41.4231 -99.1689 254° West 401 461 38,000  Level Minneapolis Center
05:24PM 41.3953 -99.3100 255° West 402 463 38,000  Level Minneapolis Center
05:25PM 41.3642 -99.4514 254° West 401 461 38,000  Level Minneapolis Center
05:26PM 41.3269 -99.6219 254° West 402 463 38,000  Level Minneapolis Center
05:27PM 41.2964 -99.7642 254° West 401 461 38,000  Level Minneapolis Center
05:28PM 41.2647 -99.9064 254° West 402 463 38,000  Level Minneapolis Center
05:29PM 41.2328 -100.0494 254° West 404 465 38,000  Level Minneapolis Center
05:30PM 41.2011 -100.1922 254° West 404 465 38,000  Level Minneapolis Center
05:31PM 41.1686 -100.3361 253° West 405 466 38,000  Level Minneapolis Center
05:32PM 41.1356 -100.4789 253° West 406 467 38,000  Level Minneapolis Center
05:33PM 41.0900 -100.6792 253° West 404 465 38,000  Level Denver Center
05:35PM 41.0539 -100.8378 253° West 408 470 38,000  Level Denver Center
05:36PM 41.0219 -100.9717 252° West 405 466 38,000  Level Denver Center
05:37PM 40.9842 -101.1278 252° West 403 464 38,000  Level Denver Center
05:38PM 40.9528 -101.2633 253° West 404 465 38,000  Level Denver Center
05:39PM 40.9200 -101.3997 252° West 409 471 38,000  Level Denver Center
05:40PM 40.8828 -101.5614 253° West 412 474 38,000  Level Denver Center
05:41PM 40.8492 -101.6994 252° West 414 476 38,000  Level Denver Center
05:42PM 40.8108 -101.8592 252° West 411 473 38,000  Level Denver Center
05:43PM 40.7769 -101.9975 252° West 413 475 38,000  Level Denver Center
05:44PM 40.7433 -102.1356 252° West 414 476 38,000  Level Denver Center
05:45PM 40.7047 -102.2950 252° West 409 471 38,000  Level Denver Center
05:46PM 40.6692 -102.4311 251° West 411 473 38,000  Level Denver Center
05:47PM 40.6414 -102.5439 252° West 406 467 38,000  Level Denver Center
05:48PM 40.5969 -102.7200 252° West 407 468 38,000  Level Denver Center
05:49PM 40.5619 -102.8614 252° West 407 468 38,000  Level Denver Center
05:50PM 40.5261 -103.0014 251° West 405 466 38,000  Level Denver Center
05:51PM 40.4900 -103.1408 251° West 405 466 38,000  Level Denver Center
05:52PM 40.4475 -103.3092 252° West 405 466 38,000  Level Denver Center
05:53PM 40.4153 -103.4508 253° West 407 468 38,000  Level Denver Center
05:54PM 40.3950 -103.5939 260° West 402 463 38,000  Level Denver Center
05:55PM 40.3731 -103.7394 259° West 411 473 38,000  Level Denver Center
05:56PM 40.3475 -103.8814 257° West 402 463 38,000  Level Denver Center
05:57PM 40.3078 -104.0200 249° West 405 466 38,000  Level Denver Center
05:58PM 40.2628 -104.1847 250° West 401 461 38,000  Level Denver Center
05:59PM 40.2178 -104.3519 251° West 406 467 38,000  Level Denver Center
06:00PM 40.1806 -104.4914 251° West 409 471 38,000  Level Denver Center
06:01PM 40.1417 -104.6325 250° West 415 478 38,000  Level Denver Center
06:02PM 40.1036 -104.7711 250° West 410 472 38,000  Level Denver Center
06:03PM 40.0644 -104.9114 250° West 411 473 38,000  Level Denver Center
06:04PM 40.0250 -105.0472 249° West 404 465 38,000  Level Denver Center
06:05PM 39.9786 -105.2122 250° West 404 465 38,000  Level Denver Center
06:07PM 39.9403 -105.3500 250° West 407 468 38,000  Level Denver Center
06:08PM 39.8992 -105.4886 249° West 410 472 38,000  Level Denver Center
06:09PM 39.8597 -105.6281 250° West 414 476 38,000  Level Denver Center
06:10PM 39.8192 -105.7672 249° West 413 475 38,000  Level Denver Center
06:11PM 39.7803 -105.9033 250° West 404 465 38,000  Level Denver Center
06:12PM 39.7392 -106.0425 249° West 412 474 38,000  Level Denver Center
06:13PM 39.6908 -106.2108 250° West 415 478 38,000 120 Level Denver Center
06:14PM 39.6558 -106.3283 249° West 413 475 38,300 420 Climbing Denver Center
06:15PM 39.6139 -106.4697 249° West 418 481 39,000 300 Climbing Denver Center
06:16PM 39.5583 -106.6564 249° West 416 479 39,000  Level Denver Center
06:17PM 39.5119 -106.8142 249° West 420 483 39,000  Level Denver Center
06:18PM 39.4667 -106.9483 246° West 426 490 39,000  Level Denver Center
06:19PM 39.4300 -107.0831 251° West 417 480 39,000  Level Denver Center
06:20PM 39.3958 -107.1950 248° West 417 480 39,000  Level Denver Center
06:21PM 39.3406 -107.3750 248° West 421 484 39,000  Level Denver Center
06:22PM 39.2917 -107.5331 248° West 422 486 39,000  Level Denver Center
06:23PM 39.2503 -107.6661 248° West 420 483 39,000  Level Denver Center
06:24PM 39.2092 -107.7994 248° West 418 481 39,000  Level Denver Center
06:25PM 39.1603 -107.9569 248° West 421 484 39,000  Level Denver Center
06:26PM 39.1189 -108.0892 248° West 417 480 39,000  Level Denver Center
06:27PM 39.0767 -108.2219 248° West 417 480 39,000  Level Denver Center
06:28PM 39.0256 -108.3825 248° West 440 506 39,000  Level Denver Center
06:29PM 38.9825 -108.5181 248° West 431 496 39,000  Level Denver Center
06:30PM 38.9336 -108.6722 248° West 416 479 39,000  Level Denver Center
06:31PM 38.8911 -108.8044 248° West 417 480 39,000  Level Denver Center
06:32PM 38.8483 -108.9361 247° West 417 480 39,000  Level Denver Center
06:34PM 38.7769 -109.1556 247° West 417 480 39,000  Level Salt Lake Center
06:35PM 38.7483 -109.2439 247° West 418 481 39,000  Level Denver Center
06:36PM 38.6986 -109.3978 248° West 418 481 39,000  Level Denver Center
06:37PM 38.6561 -109.5292 248° West 418 481 39,000  Level Denver Center
06:38PM 38.6047 -109.6775 246° West 409 471 39,000  Level Denver Center
06:39PM 38.5606 -109.8069 246° West 413 475 39,000  Level Denver Center
06:40PM 38.5167 -109.9358 247° West 412 474 39,000  Level Denver Center
06:41PM 38.4522 -110.0786 240° Southwest 415 478 39,000 -60 Level Denver Center
06:42PM 38.3975 -110.2017 240° Southwest 416 479 38,900 -540 Descending Denver Center
06:43PM 38.3344 -110.3456 241° Southwest 416 479 38,000 -480 Descending Denver Center
06:44PM 38.2800 -110.4683 241° Southwest 414 476 38,000  Level Denver Center
06:45PM 38.2242 -110.5914 240° Southwest 416 479 38,000 -420 Level Denver Center
06:46PM 38.1603 -110.7358 241° Southwest 421 484 37,200 -840 Descending Denver Center
06:47PM 38.1072 -110.8619 242° Southwest 422 486 36,300 -600 Descending Denver Center
06:48PM 38.0586 -111.0178 248° West 424 488 36,000 -600 Descending Denver Center
06:49PM 38.0122 -111.1569 247° West 427 491 35,100 -900 Descending Denver Center
06:50PM 37.9558 -111.3283 247° West 436 502 34,000 -960 Descending Salt Lake Center
06:51PM 37.9161 -111.4408 246° West 440 506 33,200 -960 Descending Denver Center
06:52PM 37.8683 -111.5842 247° West 441 507 32,300 -960 Descending Denver Center
06:53PM 37.8100 -111.7589 247° West 447 514 31,100 -1,020 Descending Salt Lake Center
06:54PM 37.7617 -111.9064 248° West 453 521 30,100 -960 Descending Salt Lake Center
06:55PM 37.7131 -112.0550 248° West 457 526 29,200 -960 Descending Salt Lake Center
06:56PM 37.6622 -112.2056 247° West 465 535 28,200 -600 Descending Salt Lake Center
06:57PM 37.6125 -112.3575 248° West 467 537 28,000 -120 Descending Salt Lake Center
06:58PM 37.5586 -112.5064 245° Southwest 466 536 28,000  Level Salt Lake Center
06:59PM 37.4706 -112.6281 228° Southwest 466 536 28,000  Level Salt Lake Center
07:00PM 37.3892 -112.7569 232° Southwest 462 532 28,000 -240 Level Salt Lake Center
07:01PM 37.3111 -112.8889 233° Southwest 464 534 27,600 -840 Descending Salt Lake Center
07:02PM 37.2372 -113.0106 233° Southwest 445 512 26,400 -1,140 Descending Salt Lake Center
07:03PM 37.1661 -113.1272 233° Southwest 426 490 25,400 -1,020 Descending Salt Lake Center
07:04PM 37.0967 -113.2433 233° Southwest 419 482 24,400 -720 Descending Salt Lake Center
07:05PM 37.0208 -113.3825 236° Southwest 407 468 24,000 -240 Descending Salt Lake Center
07:06PM 36.9483 -113.4894 230° Southwest 403 464 24,000  Level Salt Lake Center
07:07PM 36.8642 -113.5833 222° Southwest 403 464 24,000  Level Salt Lake Center
07:08PM 36.7831 -113.6786 223° Southwest 403 464 24,000 -420 Level Salt Lake Center
07:09PM 36.7281 -113.7989 240° Southwest 399 459 23,200 -1,020 Descending Salt Lake Center
07:10PM 36.7064 -113.8475 241° Southwest 400 460 22,500 -1,860 Descending Los Angeles Center
07:11PM 36.6497 -113.9625 238° Southwest 392 451 20,400 -2,220 Descending Los Angeles Center
07:12PM 36.5850 -114.0964 239° Southwest 380 437 18,100 -2,220 Descending Los Angeles Center
07:13PM 36.5461 -114.1733 238° Southwest 375 432 16,700 -1,980 Descending Los Angeles Center
07:13PM 36.5222 -114.2217 238° Southwest 369 425 15,800 -1,740 Descending Los Angeles Center
07:14PM 36.4836 -114.2967 237° Southwest 363 418 14,400 -1,740 Descending Los Angeles Center
07:15PM 36.4342 -114.4000 239° Southwest 350 403 12,600 -1,200 Descending Los Angeles Center
07:16PM 36.3597 -114.4942 226° Southwest 327 376 12,000 -540 Descending Los Angeles Center
07:17PM 36.2867 -114.4919 179° South 267 307 11,600 -840 Descending Los Angeles Center
07:18PM 36.2164 -114.4825 174° South 255 293 10,400 -1,200 Descending Los Angeles Center
07:19PM 36.1461 -114.4733 174° South 254 292 9,200 -1,200 Descending Los Angeles Center
07:20PM 36.0783 -114.4797 184° South 254 292 8,000 -540 Descending Los Angeles Center
07:21PM 36.0708 -114.5592 263° West 241 277 8,100  Climbing Los Angeles Center
07:22PM 36.0719 -114.6431 271° West 244 281 8,000 -60 Descending Los Angeles Center
07:23PM 36.0719 -114.7356 270° West 240 276 8,000 -360 Level Los Angeles Center
07:24PM 36.0731 -114.8178 271° West 241 277 7,300 -960 Descending Los Angeles Center
07:25PM 36.0742 -114.8919 271° West 219 252 6,100 -1,260 Descending Los Angeles Center
07:26PM 36.0736 -114.9589 269° West 197 227 4,800 -1,200 Descending Los Angeles Center
07:27PM 36.0731 -115.0256 269° West 188 216 3,700 -1,020 Descending Los Angeles Center
07:28PM 36.0731 -115.0842 270° West 159 183 2,800 -780 Descending Los Angeles Center
07:30PM 36.0717 -115.1458 268° West 160 184 2,000 -660 Descending Los Angeles Center